Time;durP1;ratioP1;P1;durP2;ratioP2;P2;SDS_P1;SDS_P2;PMS_P1;PMS_P2;Temp;Humidity;BMP_temperature;BMP_pressure;BME280_temperature;BME280_humidity;BME280_pressure;Samples;Min_cycle;Max_cycle;Signal;HPM_P1;HPM_P2
2021/11/14 00:00:18;;;;;;;64.30;36.03;;;;;;;;;;5052382;28;20579;-70
2021/11/14 00:02:44;;;;;;;58.90;33.85;;;;;;;;;;5052934;28;20504;-70
2021/11/14 00:05:12;;;;;;;60.28;34.88;;;;;;;;;;5035301;28;20025;-70
2021/11/14 00:07:38;;;;;;;61.85;35.90;;;;;;;;;;5053049;28;20036;-71
2021/11/14 00:10:05;;;;;;;62.70;35.63;;;;;;;;;;5052971;28;20029;-71
2021/11/14 00:12:30;;;;;;;59.78;34.45;;;;;;;;;;5034947;28;20060;-71
2021/11/14 00:14:56;;;;;;;60.47;34.45;;;;;;;;;;5035272;28;20457;-71
2021/11/14 00:17:30;;;;;;;68.68;37.25;;;;;;;;;;5036532;28;20040;-71
2021/11/14 00:19:55;;;;;;;65.20;37.03;;;;;;;;;;5053007;28;20029;-71
2021/11/14 00:22:21;;;;;;;68.35;38.65;;;;;;;;;;5054157;28;20361;-70
2021/11/14 00:24:46;;;;;;;71.38;40.53;;;;;;;;;;5056693;28;20037;-71
2021/11/14 00:27:12;;;;;;;70.43;40.00;;;;;;;;;;5056338;28;20025;-71
2021/11/14 00:29:38;;;;;;;66.03;39.47;;;;;;;;;;5055967;28;20029;-74
2021/11/14 00:32:04;;;;;;;64.03;38.15;;;;;;;;;;5038507;28;20540;-74
2021/11/14 00:34:29;;;;;;;66.18;36.58;;;;;;;;;;5056377;28;20114;-74
2021/11/14 00:36:55;;;;;;;62.28;35.78;;;;;;;;;;5056242;28;20032;-74
2021/11/14 00:39:21;;;;;;;60.60;35.30;;;;;;;;;;5056336;28;20029;-73
2021/11/14 00:41:46;;;;;;;65.97;36.30;;;;;;;;;;5056278;28;20473;-73
2021/11/14 00:44:13;;;;;;;63.65;36.67;;;;;;;;;;5056000;28;20043;-74
2021/11/14 00:46:39;;;;;;;66.07;35.35;;;;;;;;;;5038368;28;20037;-73
2021/11/14 00:49:05;;;;;;;69.30;36.60;;;;;;;;;;5055762;28;20120;-74
2021/11/14 00:51:33;;;;;;;66.00;36.90;;;;;;;;;;5054332;28;20492;-73
2021/11/14 00:54:00;;;;;;;68.30;37.03;;;;;;;;;;5053859;28;20045;-73
2021/11/14 00:56:26;;;;;;;64.97;36.08;;;;;;;;;;5054762;28;20029;-71
2021/11/14 00:58:53;;;;;;;64.38;36.10;;;;;;;;;;5055883;28;20496;-71
2021/11/14 01:01:19;;;;;;;64.50;35.50;;;;;;;;;;5055861;28;20033;-73
2021/11/14 01:03:45;;;;;;;63.60;35.88;;;;;;;;;;5056027;28;20193;-74
2021/11/14 01:06:10;;;;;;;62.25;34.63;;;;;;;;;;5056381;28;20092;-73
2021/11/14 01:08:36;;;;;;;64.60;34.95;;;;;;;;;;5055682;28;20091;-74
2021/11/14 01:11:03;;;;;;;70.97;36.22;;;;;;;;;;5055678;28;20399;-73
2021/11/14 01:13:31;;;;;;;62.40;35.15;;;;;;;;;;5037601;28;20473;-73
2021/11/14 01:15:57;;;;;;;62.00;34.95;;;;;;;;;;5055948;28;20029;-71
2021/11/14 01:18:23;;;;;;;62.55;33.13;;;;;;;;;;5055836;28;20393;-71
2021/11/14 01:20:51;;;;;;;63.75;35.00;;;;;;;;;;5055677;28;20040;-71
2021/11/14 01:23:17;;;;;;;63.60;35.05;;;;;;;;;;5036961;28;20033;-70
2021/11/14 01:25:44;;;;;;;62.00;34.50;;;;;;;;;;5055286;28;20123;-70
2021/11/14 01:28:10;;;;;;;57.20;32.63;;;;;;;;;;5055276;28;20033;-71
2021/11/14 01:30:37;;;;;;;61.03;34.67;;;;;;;;;;5054689;28;20519;-71
2021/11/14 01:33:04;;;;;;;67.57;35.28;;;;;;;;;;5054850;28;20543;-71
2021/11/14 01:35:29;;;;;;;63.08;34.58;;;;;;;;;;5054373;28;20036;-71
2021/11/14 01:37:57;;;;;;;61.33;34.38;;;;;;;;;;5036805;28;20033;-71
2021/11/14 01:40:29;;;;;;;60.05;34.22;;;;;;;;;;5054903;28;20120;-71
2021/11/14 01:42:54;;;;;;;59.08;33.45;;;;;;;;;;5054762;28;20416;-71
2021/11/14 01:45:21;;;;;;;61.85;34.55;;;;;;;;;;5055110;28;20037;-71
2021/11/14 01:47:47;;;;;;;60.88;34.35;;;;;;;;;;5054995;28;20370;-71
2021/11/14 01:50:13;;;;;;;59.38;32.85;;;;;;;;;;5054492;28;20036;-71
2021/11/14 01:52:39;;;;;;;56.78;31.98;;;;;;;;;;5054553;28;20103;-71
2021/11/14 01:55:05;;;;;;;63.80;34.58;;;;;;;;;;5054986;28;20471;-72
2021/11/14 01:57:31;;;;;;;60.00;32.92;;;;;;;;;;5036937;28;20487;-72
2021/11/14 01:59:57;;;;;;;59.72;32.67;;;;;;;;;;5054845;28;20037;-71
2021/11/14 02:02:22;;;;;;;56.15;32.15;;;;;;;;;;5054475;28;20071;-71
2021/11/14 02:04:49;;;;;;;62.08;32.67;;;;;;;;;;5054391;28;20504;-72
2021/11/14 02:07:16;;;;;;;56.55;31.90;;;;;;;;;;5054364;28;20064;-70
2021/11/14 02:09:42;;;;;;;57.65;32.28;;;;;;;;;;5054878;28;20036;-70
2021/11/14 02:12:07;;;;;;;65.13;33.83;;;;;;;;;;5054726;28;20211;-69
2021/11/14 02:14:33;;;;;;;81.07;39.67;;;;;;;;;;5055025;28;20389;-69
2021/11/14 02:16:59;;;;;;;77.30;38.28;;;;;;;;;;5054742;28;20121;-69
2021/11/14 02:19:25;;;;;;;88.85;43.08;;;;;;;;;;5054661;28;20028;-69
2021/11/14 02:21:51;;;;;;;63.72;34.88;;;;;;;;;;5054394;28;20037;-69
2021/11/14 02:24:16;;;;;;;55.38;32.58;;;;;;;;;;5036363;28;20037;-70
2021/11/14 02:26:43;;;;;;;60.63;32.20;;;;;;;;;;5054596;28;20048;-71
2021/11/14 02:29:08;;;;;;;58.88;32.55;;;;;;;;;;5036179;28;20127;-71
2021/11/14 02:31:35;;;;;;;59.60;33.30;;;;;;;;;;5054487;28;20124;-71
2021/11/14 02:34:01;;;;;;;56.50;33.40;;;;;;;;;;5054190;28;20099;-71
2021/11/14 02:36:27;;;;;;;64.55;35.20;;;;;;;;;;5054539;28;20029;-71
2021/11/14 02:38:53;;;;;;;58.88;34.00;;;;;;;;;;5053871;28;20480;-73
2021/11/14 02:41:19;;;;;;;57.20;32.75;;;;;;;;;;5053999;28;20080;-71
2021/11/14 02:43:46;;;;;;;58.80;33.05;;;;;;;;;;5054074;28;20366;-71
2021/11/14 02:46:12;;;;;;;58.35;32.75;;;;;;;;;;5053082;28;20036;-70
2021/11/14 02:48:39;;;;;;;57.72;31.60;;;;;;;;;;5036230;28;20457;-71
2021/11/14 02:51:11;;;;;;;52.13;32.15;;;;;;;;;;5054354;28;20091;-70
2021/11/14 02:53:37;;;;;;;57.55;30.75;;;;;;;;;;5053848;28;20079;-70
2021/11/14 02:56:02;;;;;;;58.72;33.17;;;;;;;;;;5052889;28;20025;-71
2021/11/14 02:58:28;;;;;;;56.42;31.40;;;;;;;;;;5052874;28;20044;-71
2021/11/14 03:00:57;;;;;;;55.00;31.75;;;;;;;;;;5053263;28;20060;-69
2021/11/14 03:03:23;;;;;;;54.40;30.25;;;;;;;;;;5053282;28;20099;-70
2021/11/14 03:05:49;;;;;;;51.83;29.92;;;;;;;;;;5053543;28;20477;-70
2021/11/14 03:08:14;;;;;;;57.08;32.45;;;;;;;;;;5053877;28;20098;-69
2021/11/14 03:10:41;;;;;;;55.70;31.65;;;;;;;;;;5035724;28;20032;-69
2021/11/14 03:13:08;;;;;;;55.30;32.70;;;;;;;;;;5053644;28;20033;-70
2021/11/14 03:15:35;;;;;;;56.20;31.33;;;;;;;;;;5053626;28;20025;-69
2021/11/14 03:18:01;;;;;;;58.83;32.15;;;;;;;;;;5053757;28;20032;-70
2021/11/14 03:20:27;;;;;;;55.22;30.98;;;;;;;;;;5053563;28;20021;-70
2021/11/14 03:22:52;;;;;;;56.70;30.90;;;;;;;;;;5053153;28;20163;-71
2021/11/14 03:25:23;;;;;;;52.85;29.67;;;;;;;;;;5053695;28;20515;-72
2021/11/14 03:27:49;;;;;;;51.60;28.75;;;;;;;;;;5053515;28;20135;-72
2021/11/14 03:30:16;;;;;;;54.60;31.00;;;;;;;;;;5053107;28;20040;-72
2021/11/14 03:32:41;;;;;;;53.25;30.08;;;;;;;;;;5035399;28;20045;-72
2021/11/14 03:35:07;;;;;;;51.10;29.00;;;;;;;;;;5053272;28;20496;-72
2021/11/14 03:37:33;;;;;;;51.92;30.25;;;;;;;;;;5035256;28;20135;-72
2021/11/14 03:40:00;;;;;;;56.55;31.42;;;;;;;;;;5053152;28;20480;-72
2021/11/14 03:42:26;;;;;;;57.35;30.75;;;;;;;;;;5035390;28;20045;-72
2021/11/14 03:44:51;;;;;;;51.20;29.45;;;;;;;;;;5053274;28;20076;-71
2021/11/14 03:47:17;;;;;;;53.17;30.38;;;;;;;;;;5053226;28;20041;-71
2021/11/14 03:49:42;;;;;;;50.90;29.35;;;;;;;;;;5035449;28;20033;-71
2021/11/14 03:52:09;;;;;;;50.55;28.70;;;;;;;;;;5035543;28;20389;-71
2021/11/14 03:54:34;;;;;;;50.53;29.20;;;;;;;;;;5053271;28;20393;-72
2021/11/14 03:57:00;;;;;;;53.85;29.85;;;;;;;;;;5055057;28;20040;-69
2021/11/14 03:59:26;;;;;;;47.30;27.73;;;;;;;;;;5059783;28;20583;-70
2021/11/14 04:01:52;;;;;;;51.17;28.42;;;;;;;;;;5041767;28;20406;-70
2021/11/14 04:04:18;;;;;;;153.20;60.60;;;;;;;;;;5059493;28;20043;-69
2021/11/14 04:06:43;;;;;;;78.78;41.33;;;;;;;;;;5059763;28;20136;-70
2021/11/14 04:09:09;;;;;;;56.15;31.65;;;;;;;;;;5059499;28;20033;-69
2021/11/14 04:11:34;;;;;;;45.75;29.40;;;;;;;;;;5059757;28;20044;-68
2021/11/14 04:14:01;;;;;;;51.53;28.50;;;;;;;;;;5059358;28;20057;-68
2021/11/14 04:16:27;;;;;;;51.67;29.25;;;;;;;;;;5059685;28;20078;-68
2021/11/14 04:18:52;;;;;;;55.13;30.00;;;;;;;;;;5059587;28;20406;-69
2021/11/14 04:21:18;;;;;;;50.65;30.17;;;;;;;;;;5059278;28;20120;-69
2021/11/14 04:23:43;;;;;;;51.05;29.33;;;;;;;;;;5059307;28;20422;-69
2021/11/14 04:26:09;;;;;;;45.00;26.85;;;;;;;;;;5059187;28;20041;-69
2021/11/14 04:28:36;;;;;;;50.40;28.85;;;;;;;;;;5059623;28;20033;-70
2021/11/14 04:31:03;;;;;;;43.33;25.85;;;;;;;;;;5059711;28;20063;-70
2021/11/14 04:33:29;;;;;;;49.10;27.25;;;;;;;;;;5059310;28;20052;-70
2021/11/14 04:35:55;;;;;;;49.17;28.00;;;;;;;;;;5059616;28;20037;-70
2021/11/14 04:38:20;;;;;;;49.20;27.00;;;;;;;;;;5059109;28;20381;-69
2021/11/14 04:40:47;;;;;;;46.97;27.02;;;;;;;;;;5059542;28;20071;-69
2021/11/14 04:43:13;;;;;;;47.85;26.10;;;;;;;;;;5041420;28;20369;-69
2021/11/14 04:45:39;;;;;;;46.05;25.67;;;;;;;;;;5059359;28;20048;-69
2021/11/14 04:48:06;;;;;;;44.95;25.98;;;;;;;;;;5059216;28;20028;-69
2021/11/14 04:50:32;;;;;;;43.67;25.80;;;;;;;;;;5059346;28;20048;-68
2021/11/14 04:52:57;;;;;;;44.97;26.00;;;;;;;;;;5058933;28;20040;-74
2021/11/14 04:55:23;;;;;;;49.53;26.90;;;;;;;;;;5058939;28;20029;-73
2021/11/14 04:57:52;;;;;;;46.97;25.40;;;;;;;;;;5059000;28;20029;-73
2021/11/14 05:00:27;;;;;;;46.97;25.60;;;;;;;;;;5059096;28;20033;-73
2021/11/14 05:02:53;;;;;;;42.55;24.25;;;;;;;;;;5041253;28;20048;-72
2021/11/14 05:05:19;;;;;;;43.47;25.15;;;;;;;;;;5058838;28;20041;-72
2021/11/14 05:07:44;;;;;;;44.10;25.27;;;;;;;;;;5059381;28;20110;-73
2021/11/14 05:10:10;;;;;;;40.88;23.92;;;;;;;;;;5055053;28;20029;-72
2021/11/14 05:12:36;;;;;;;43.10;23.77;;;;;;;;;;5055650;28;20040;-71
2021/11/14 05:15:04;;;;;;;42.95;24.17;;;;;;;;;;5055875;28;20029;-73
2021/11/14 05:17:30;;;;;;;40.03;24.15;;;;;;;;;;5055656;28;20068;-72
2021/11/14 05:19:55;;;;;;;47.03;25.25;;;;;;;;;;5055665;28;20064;-72
2021/11/14 05:22:21;;;;;;;42.00;25.60;;;;;;;;;;5055460;28;20049;-69
2021/11/14 05:24:46;;;;;;;47.08;24.55;;;;;;;;;;5055787;28;20025;-69
2021/11/14 05:27:12;;;;;;;44.03;24.35;;;;;;;;;;5055537;28;20033;-69
2021/11/14 05:29:37;;;;;;;42.03;24.58;;;;;;;;;;5055092;28;20099;-71
2021/11/14 05:32:03;;;;;;;41.53;23.08;;;;;;;;;;5055654;28;20047;-73
2021/11/14 05:34:28;;;;;;;38.33;22.95;;;;;;;;;;5055530;28;20037;-73
2021/11/14 05:36:55;;;;;;;42.83;23.92;;;;;;;;;;5055694;28;20044;-72
2021/11/14 05:39:21;;;;;;;38.72;23.05;;;;;;;;;;5055005;28;20025;-69
2021/11/14 05:41:47;;;;;;;42.08;24.88;;;;;;;;;;5054961;28;20040;-70
2021/11/14 05:44:14;;;;;;;40.90;23.85;;;;;;;;;;5055592;28;20029;-70
2021/11/14 05:46:40;;;;;;;43.40;25.65;;;;;;;;;;5037609;28;20041;-70
2021/11/14 05:49:08;;;;;;;45.67;25.08;;;;;;;;;;5055044;28;20029;-70
2021/11/14 05:51:35;;;;;;;43.03;24.95;;;;;;;;;;5054275;28;20047;-70
2021/11/14 05:54:01;;;;;;;43.33;23.95;;;;;;;;;;5054162;28;20041;-73
2021/11/14 05:56:27;;;;;;;39.55;23.42;;;;;;;;;;5055641;28;20039;-74
2021/11/14 05:59:23;;;;;;;56.92;32.55;;;;;;;;;;5054804;28;20071;-74
2021/11/14 06:04:12;;;;;;;58.00;38.90;;;;;;;;;;5054596;28;20025;-75
2021/11/14 06:06:39;;;;;;;37.15;24.63;;;;;;;;;;5054309;28;20373;-75
2021/11/14 06:09:04;;;;;;;35.25;22.13;;;;;;;;;;5053530;28;20435;-74
2021/11/14 06:11:30;;;;;;;37.90;21.33;;;;;;;;;;5052577;28;20033;-73
2021/11/14 06:13:55;;;;;;;36.92;22.27;;;;;;;;;;5052084;28;20124;-74
2021/11/14 06:16:22;;;;;;;32.17;21.08;;;;;;;;;;5053625;28;20043;-74
2021/11/14 06:18:47;;;;;;;36.97;25.52;;;;;;;;;;5052334;28;20123;-74
2021/11/14 06:21:13;;;;;;;36.22;22.98;;;;;;;;;;5034232;28;20137;-71
2021/11/14 06:23:39;;;;;;;36.30;21.30;;;;;;;;;;5017950;28;20028;-72
2021/11/14 06:26:05;;;;;;;38.58;22.52;;;;;;;;;;5052423;28;20041;-72
2021/11/14 06:28:30;;;;;;;34.55;22.08;;;;;;;;;;5035428;28;20029;-72
2021/11/14 06:30:56;;;;;;;34.58;22.45;;;;;;;;;;5035370;28;20040;-72
2021/11/14 06:33:22;;;;;;;34.40;21.88;;;;;;;;;;5053313;28;20512;-72
2021/11/14 06:35:47;;;;;;;36.97;22.38;;;;;;;;;;5053379;28;20037;-72
2021/11/14 06:38:13;;;;;;;36.47;21.17;;;;;;;;;;5053377;28;20021;-72
2021/11/14 06:40:45;;;;;;;39.45;22.70;;;;;;;;;;5053749;28;20049;-73
2021/11/14 06:43:12;;;;;;;38.40;23.75;;;;;;;;;;5053879;28;20048;-72
2021/11/14 06:45:37;;;;;;;40.47;25.50;;;;;;;;;;5052743;28;20465;-72
2021/11/14 06:48:03;;;;;;;39.67;24.38;;;;;;;;;;5053493;28;20047;-72
2021/11/14 06:50:28;;;;;;;41.78;24.35;;;;;;;;;;5052214;28;20036;-72
2021/11/14 06:52:54;;;;;;;55.10;31.58;;;;;;;;;;5051809;28;20051;-72
2021/11/14 06:55:20;;;;;;;45.60;27.33;;;;;;;;;;5051850;28;20060;-72
2021/11/14 06:57:46;;;;;;;48.90;30.25;;;;;;;;;;5051921;28;20068;-72
2021/11/14 07:00:15;;;;;;;45.15;27.85;;;;;;;;;;5051622;28;20046;-72
2021/11/14 07:02:41;;;;;;;45.15;30.75;;;;;;;;;;5033968;28;20099;-72
2021/11/14 07:05:07;;;;;;;53.55;31.45;;;;;;;;;;5052214;28;20431;-71
2021/11/14 07:07:33;;;;;;;43.63;26.27;;;;;;;;;;5052545;28;20065;-72
2021/11/14 07:09:58;;;;;;;49.67;31.08;;;;;;;;;;5051108;28;20029;-72
2021/11/14 07:12:26;;;;;;;38.67;24.80;;;;;;;;;;5051917;28;20036;-72
2021/11/14 07:14:52;;;;;;;43.90;27.00;;;;;;;;;;5052834;28;20025;-72
2021/11/14 07:17:18;;;;;;;44.85;28.35;;;;;;;;;;5053484;28;20037;-72
2021/11/14 07:19:43;;;;;;;37.83;24.45;;;;;;;;;;5053282;28;20029;-72
2021/11/14 07:22:09;;;;;;;65.55;40.05;;;;;;;;;;5053525;28;20083;-72
2021/11/14 07:24:34;;;;;;;53.97;32.88;;;;;;;;;;5053088;28;20082;-72
2021/11/14 07:27:00;;;;;;;49.72;29.02;;;;;;;;;;5053117;28;20037;-72
2021/11/14 07:29:27;;;;;;;44.05;26.77;;;;;;;;;;5034964;28;20063;-72
2021/11/14 07:31:53;;;;;;;36.42;24.35;;;;;;;;;;5052866;28;20033;-72
2021/11/14 07:34:18;;;;;;;60.83;35.58;;;;;;;;;;5053040;28;20119;-72
2021/11/14 07:36:44;;;;;;;46.72;31.10;;;;;;;;;;5053181;28;20033;-72
2021/11/14 07:39:10;;;;;;;41.90;28.27;;;;;;;;;;5053043;28;20035;-71
2021/11/14 07:41:36;;;;;;;42.58;26.25;;;;;;;;;;5035225;28;20082;-72
2021/11/14 07:44:01;;;;;;;61.38;37.88;;;;;;;;;;5052961;28;20028;-72
2021/11/14 07:46:27;;;;;;;40.63;25.45;;;;;;;;;;5053198;28;20090;-72
2021/11/14 07:48:53;;;;;;;68.05;43.25;;;;;;;;;;5053305;28;20115;-72
2021/11/14 07:51:19;;;;;;;63.20;39.42;;;;;;;;;;5053232;28;20457;-72
2021/11/14 07:53:44;;;;;;;35.45;23.73;;;;;;;;;;5053210;28;20115;-72
2021/11/14 07:56:10;;;;;;;34.03;21.70;;;;;;;;;;5053168;28;20041;-72
2021/11/14 07:58:35;;;;;;;31.42;20.45;;;;;;;;;;5053196;28;20032;-72
2021/11/14 08:01:01;;;;;;;30.17;19.95;;;;;;;;;;5053097;28;20033;-72
2021/11/14 08:03:31;;;;;;;30.20;19.45;;;;;;;;;;5053243;28;20503;-72
2021/11/14 08:05:57;;;;;;;27.80;17.90;;;;;;;;;;5052750;28;20570;-72
2021/11/14 08:08:22;;;;;;;30.52;19.45;;;;;;;;;;5035015;28;20195;-71
2021/11/14 08:10:48;;;;;;;33.38;21.70;;;;;;;;;;5053260;28;20037;-71
2021/11/14 08:13:13;;;;;;;32.95;20.80;;;;;;;;;;5035110;28;20083;-72
2021/11/14 08:15:39;;;;;;;36.33;23.08;;;;;;;;;;5053118;28;20033;-72
2021/11/14 08:18:05;;;;;;;29.80;18.30;;;;;;;;;;5052745;28;20540;-72
2021/11/14 08:20:35;;;;;;;26.70;18.08;;;;;;;;;;5052684;28;20036;-72
2021/11/14 08:23:05;;;;;;;25.35;17.40;;;;;;;;;;5052845;28;20116;-71
2021/11/14 08:25:31;;;;;;;26.33;16.90;;;;;;;;;;5053071;28;20069;-72
2021/11/14 08:27:58;;;;;;;26.83;16.45;;;;;;;;;;5053065;28;20033;-71
2021/11/14 08:30:23;;;;;;;27.60;16.98;;;;;;;;;;5052004;28;20032;-72
2021/11/14 08:32:49;;;;;;;27.65;17.65;;;;;;;;;;5052876;28;20033;-72
2021/11/14 08:35:16;;;;;;;22.63;15.43;;;;;;;;;;5052867;28;20237;-72
2021/11/14 08:37:42;;;;;;;25.13;14.93;;;;;;;;;;5053211;28;20032;-71
2021/11/14 08:40:09;;;;;;;24.40;15.00;;;;;;;;;;5052685;28;20041;-72
2021/11/14 08:42:34;;;;;;;24.67;14.77;;;;;;;;;;5052992;28;20029;-72
2021/11/14 08:45:01;;;;;;;25.00;15.65;;;;;;;;;;5055099;28;20040;-72
2021/11/14 08:47:27;;;;;;;22.63;15.70;;;;;;;;;;5056627;28;20021;-71
2021/11/14 08:49:52;;;;;;;25.00;16.13;;;;;;;;;;5056306;28;20611;-72
2021/11/14 08:52:18;;;;;;;26.10;16.38;;;;;;;;;;5054618;28;20036;-72
2021/11/14 08:54:43;;;;;;;30.02;17.55;;;;;;;;;;5038217;28;20049;-72
2021/11/14 08:57:09;;;;;;;24.60;14.25;;;;;;;;;;5056125;28;20028;-72
2021/11/14 08:59:34;;;;;;;21.58;14.65;;;;;;;;;;5055831;28;20037;-72
2021/11/14 09:02:01;;;;;;;23.20;15.10;;;;;;;;;;5056082;28;20079;-72
2021/11/14 09:04:26;;;;;;;24.08;15.93;;;;;;;;;;5056019;28;20512;-71
2021/11/14 09:06:55;;;;;;;37.15;22.13;;;;;;;;;;5055701;28;20033;-72
2021/11/14 09:09:21;;;;;;;26.60;17.65;;;;;;;;;;5055802;28;20037;-72
2021/11/14 09:11:46;;;;;;;32.67;19.60;;;;;;;;;;5055869;28;20037;-72
2021/11/14 09:14:12;;;;;;;26.48;17.65;;;;;;;;;;5055589;28;20120;-72
2021/11/14 09:16:38;;;;;;;20.85;13.45;;;;;;;;;;5055869;28;20136;-72
2021/11/14 09:19:07;;;;;;;23.77;14.10;;;;;;;;;;5055625;28;20493;-72
2021/11/14 09:21:34;;;;;;;22.55;15.05;;;;;;;;;;5055618;28;20052;-72
2021/11/14 09:23:59;;;;;;;34.33;20.48;;;;;;;;;;5037620;28;20048;-72
2021/11/14 09:26:25;;;;;;;28.83;17.30;;;;;;;;;;5055474;28;20041;-72
2021/11/14 09:28:50;;;;;;;31.58;18.00;;;;;;;;;;5055329;28;20037;-71
2021/11/14 09:31:17;;;;;;;24.33;16.00;;;;;;;;;;5037431;28;20044;-72
2021/11/14 09:33:43;;;;;;;26.27;15.45;;;;;;;;;;5055263;28;20041;-72
2021/11/14 09:36:09;;;;;;;23.45;14.75;;;;;;;;;;5055372;28;20481;-72
2021/11/14 09:38:35;;;;;;;22.25;13.60;;;;;;;;;;5055337;28;20039;-72
2021/11/14 09:41:02;;;;;;;22.90;14.25;;;;;;;;;;5055144;28;20546;-72
2021/11/14 09:43:28;;;;;;;29.33;17.25;;;;;;;;;;5055088;28;20041;-72
2021/11/14 09:45:54;;;;;;;24.85;17.17;;;;;;;;;;5055331;28;20045;-72
2021/11/14 09:48:21;;;;;;;26.50;16.80;;;;;;;;;;5054947;28;20369;-72
2021/11/14 09:50:47;;;;;;;23.83;15.07;;;;;;;;;;5037065;28;20449;-72
2021/11/14 09:53:12;;;;;;;21.83;14.75;;;;;;;;;;5055009;28;20040;-72
2021/11/14 09:55:38;;;;;;;23.80;14.63;;;;;;;;;;5054297;28;20037;-72
2021/11/14 09:58:04;;;;;;;18.98;13.32;;;;;;;;;;5054875;28;20033;-72
2021/11/14 10:00:30;;;;;;;25.02;15.45;;;;;;;;;;5036628;28;20021;-72
2021/11/14 10:02:56;;;;;;;24.30;15.70;;;;;;;;;;5055079;28;20083;-72
2021/11/14 10:05:21;;;;;;;23.23;15.13;;;;;;;;;;5037272;28;20025;-71
2021/11/14 10:07:57;;;;;;;22.23;13.63;;;;;;;;;;5054959;28;20897;-72
2021/11/14 10:10:27;;;;;;;18.25;12.88;;;;;;;;;;5055138;28;20112;-72
2021/11/14 10:12:54;;;;;;;19.70;13.20;;;;;;;;;;5031771;28;20047;-72
2021/11/14 10:15:21;;;;;;;20.50;13.82;;;;;;;;;;5037300;28;20029;-72
2021/11/14 10:17:48;;;;;;;22.10;13.27;;;;;;;;;;5054600;28;20133;-72
2021/11/14 10:20:19;;;;;;;20.73;14.77;;;;;;;;;;5054716;28;20100;-72
2021/11/14 10:22:50;;;;;;;23.90;15.95;;;;;;;;;;5054321;28;20036;-71
2021/11/14 10:25:16;;;;;;;21.08;14.75;;;;;;;;;;5054978;28;20064;-72
2021/11/14 10:27:42;;;;;;;20.42;13.80;;;;;;;;;;5054638;28;20045;-72
2021/11/14 10:30:10;;;;;;;22.90;15.20;;;;;;;;;;5054111;28;20056;-72
2021/11/14 10:32:36;;;;;;;20.70;14.02;;;;;;;;;;5054805;28;20080;-71
2021/11/14 10:35:03;;;;;;;24.38;14.85;;;;;;;;;;5036621;28;20496;-72
2021/11/14 10:37:39;;;;;;;20.75;13.95;;;;;;;;;;5054226;28;20037;-71
2021/11/14 10:40:05;;;;;;;22.13;12.63;;;;;;;;;;5054675;28;20041;-72
2021/11/14 10:42:32;;;;;;;21.05;13.93;;;;;;;;;;5054194;28;20101;-72
2021/11/14 10:44:58;;;;;;;24.80;15.75;;;;;;;;;;5036065;28;20045;-72
2021/11/14 10:47:24;;;;;;;27.30;17.20;;;;;;;;;;5053983;28;20052;-72
2021/11/14 10:53:26;;;;;;;21.17;13.55;;;;;;;;;;5054556;28;20097;-72
2021/11/14 10:59:27;;;;;;;24.92;14.73;;;;;;;;;;5054586;28;20029;-71
2021/11/14 11:05:28;;;;;;;23.08;14.93;;;;;;;;;;5054451;28;20509;-72
2021/11/14 11:11:29;;;;;;;24.67;16.63;;;;;;;;;;5054111;28;20484;-71
2021/11/14 11:28:17;;;;;;;32.03;15.52;;;;;;;;;;5012314;28;20108;-71
2021/11/14 11:34:07;;;;;;;27.08;16.67;;;;;;;;;;5011211;28;20422;-74
2021/11/14 11:36:33;;;;;;;27.65;17.70;;;;;;;;;;5011434;28;20042;-74
2021/11/14 11:38:58;;;;;;;24.90;14.23;;;;;;;;;;4994992;28;20038;-75
2021/11/14 11:41:28;;;;;;;23.77;15.40;;;;;;;;;;5011321;28;20033;-75
2021/11/14 11:43:54;;;;;;;20.45;13.52;;;;;;;;;;5011357;28;20145;-75
2021/11/14 11:46:33;;;;;;;23.40;14.18;;;;;;;;;;5011265;28;20084;-75
2021/11/14 11:49:00;;;;;;;23.23;13.73;;;;;;;;;;5011409;28;20115;-74
2021/11/14 11:51:29;;;;;;;20.70;13.98;;;;;;;;;;5017953;28;20441;-75
2021/11/14 11:53:59;;;;;;;21.52;14.68;;;;;;;;;;5052913;28;20091;-75
2021/11/14 11:56:35;;;;;;;22.70;14.02;;;;;;;;;;5053039;28;20071;-75
2021/11/14 11:59:00;;;;;;;27.77;16.02;;;;;;;;;;5053090;28;20041;-74
2021/11/14 12:01:30;;;;;;;211.35;60.63;;;;;;;;;;5052924;28;20052;-75
2021/11/14 12:04:17;;;;;;;67.95;25.90;;;;;;;;;;5052951;28;20512;-75
2021/11/14 12:06:47;;;;;;;65.53;24.30;;;;;;;;;;5035235;28;20412;-74
2021/11/14 12:09:13;;;;;;;35.17;18.17;;;;;;;;;;5052979;28;20497;-75
2021/11/14 12:11:44;;;;;;;28.00;15.65;;;;;;;;;;5052783;28;20048;-75
2021/11/14 12:14:18;;;;;;;25.58;15.55;;;;;;;;;;5034954;28;20037;-74
2021/11/14 12:16:56;;;;;;;31.30;16.30;;;;;;;;;;5052786;28;20039;-75
2021/11/14 12:19:25;;;;;;;27.10;16.90;;;;;;;;;;5055876;28;20064;-75
2021/11/14 12:21:54;;;;;;;394.60;133.77;;;;;;;;;;5056738;28;20562;-75
2021/11/14 12:24:20;;;;;;;753.80;296.88;;;;;;;;;;5056741;28;20040;-75
2021/11/14 12:26:45;;;;;;;307.63;111.35;;;;;;;;;;5056679;28;20473;-75
2021/11/14 12:29:21;;;;;;;83.63;37.70;;;;;;;;;;5056620;28;20392;-74
2021/11/14 12:31:48;;;;;;;32.92;18.20;;;;;;;;;;5056656;28;20047;-74
2021/11/14 12:34:22;;;;;;;50.83;25.95;;;;;;;;;;5056246;28;20076;-71
2021/11/14 12:36:47;;;;;;;41.28;22.30;;;;;;;;;;5021913;28;20398;-71
2021/11/14 12:39:12;;;;;;;130.68;63.08;;;;;;;;;;5038659;28;20037;-72
2021/11/14 12:41:39;;;;;;;168.07;87.68;;;;;;;;;;5056384;28;20033;-71
2021/11/14 12:44:04;;;;;;;88.75;48.63;;;;;;;;;;5056314;28;20108;-71
2021/11/14 12:46:30;;;;;;;65.95;39.90;;;;;;;;;;5056355;28;20061;-71
2021/11/14 12:48:56;;;;;;;249.32;148.27;;;;;;;;;;5056264;28;20061;-71
2021/11/14 12:51:26;;;;;;;111.10;67.43;;;;;;;;;;5056251;28;20075;-71
2021/11/14 12:53:54;;;;;;;67.30;43.15;;;;;;;;;;5038391;28;20049;-72
2021/11/14 12:56:37;;;;;;;45.17;28.65;;;;;;;;;;5038341;28;20491;-71
2021/11/14 12:59:24;;;;;;;44.00;31.30;;;;;;;;;;5056094;28;20029;-71
2021/11/14 13:02:10;;;;;;;39.30;25.05;;;;;;;;;;5056018;28;20029;-71
2021/11/14 13:04:36;;;;;;;47.45;30.85;;;;;;;;;;5041443;28;20075;-71
2021/11/14 13:07:03;;;;;;;42.13;24.25;;;;;;;;;;5056050;28;20029;-71
2021/11/14 13:09:30;;;;;;;38.30;20.58;;;;;;;;;;5056018;28;20037;-71
2021/11/14 13:12:03;;;;;;;38.05;19.85;;;;;;;;;;5055790;28;20361;-71
2021/11/14 13:14:32;;;;;;;36.25;21.65;;;;;;;;;;5055664;28;20049;-72
2021/11/14 13:16:58;;;;;;;28.90;19.75;;;;;;;;;;5055726;28;20055;-71
2021/11/14 13:19:24;;;;;;;26.58;18.00;;;;;;;;;;5037870;28;20037;-71
2021/11/14 13:21:50;;;;;;;36.13;20.60;;;;;;;;;;5055778;28;20117;-71
2021/11/14 13:24:16;;;;;;;60.67;26.95;;;;;;;;;;5055686;28;20045;-71
2021/11/14 13:26:46;;;;;;;34.53;19.27;;;;;;;;;;5055478;28;20025;-71
2021/11/14 13:29:14;;;;;;;23.88;15.20;;;;;;;;;;5054987;28;20045;-71
2021/11/14 13:31:39;;;;;;;20.95;14.05;;;;;;;;;;5036754;28;20037;-71
2021/11/14 13:34:13;;;;;;;23.13;14.95;;;;;;;;;;5055237;28;20053;-71
2021/11/14 13:36:49;;;;;;;34.28;16.85;;;;;;;;;;5055308;28;20128;-71
2021/11/14 13:39:25;;;;;;;28.90;17.13;;;;;;;;;;5020979;28;20397;-72
2021/11/14 13:41:54;;;;;;;30.45;18.63;;;;;;;;;;5055303;28;20036;-72
2021/11/14 13:44:27;;;;;;;28.95;18.52;;;;;;;;;;5054847;28;20033;-71
2021/11/14 13:46:58;;;;;;;31.90;19.55;;;;;;;;;;5055188;28;20500;-71
2021/11/14 13:49:25;;;;;;;27.15;19.17;;;;;;;;;;5055146;28;20033;-71
2021/11/14 13:51:51;;;;;;;25.73;17.30;;;;;;;;;;5055176;28;20037;-72
2021/11/14 13:54:16;;;;;;;26.55;16.50;;;;;;;;;;5037302;28;20047;-71
2021/11/14 13:56:43;;;;;;;29.35;18.05;;;;;;;;;;5055050;28;20107;-71
2021/11/14 13:59:08;;;;;;;30.20;18.15;;;;;;;;;;5055052;28;20037;-72
2021/11/14 14:01:34;;;;;;;32.72;19.52;;;;;;;;;;5054800;28;20103;-72
2021/11/14 14:04:00;;;;;;;35.08;19.52;;;;;;;;;;5036869;28;20052;-72
2021/11/14 14:06:29;;;;;;;35.88;20.85;;;;;;;;;;5054843;28;20051;-72
2021/11/14 14:08:55;;;;;;;38.08;21.73;;;;;;;;;;5054828;28;20072;-71
2021/11/14 14:11:21;;;;;;;28.17;16.90;;;;;;;;;;5054768;28;20060;-71
2021/11/14 14:13:59;;;;;;;30.75;17.33;;;;;;;;;;5054689;28;20040;-71
2021/11/14 14:16:27;;;;;;;31.17;16.92;;;;;;;;;;5054466;28;20039;-71
2021/11/14 14:18:52;;;;;;;60.05;28.30;;;;;;;;;;5054504;28;20392;-71
2021/11/14 14:21:23;;;;;;;57.45;27.65;;;;;;;;;;5054357;28;20124;-72
2021/11/14 14:23:48;;;;;;;37.97;18.73;;;;;;;;;;5054444;28;20106;-72
2021/11/14 14:26:19;;;;;;;65.60;32.08;;;;;;;;;;5054378;28;20037;-71
2021/11/14 14:28:44;;;;;;;64.28;32.22;;;;;;;;;;5054308;28;20040;-71
2021/11/14 14:31:13;;;;;;;43.22;24.92;;;;;;;;;;5054257;28;20021;-71
2021/11/14 14:33:38;;;;;;;33.90;20.15;;;;;;;;;;5053843;28;20517;-71
2021/11/14 14:36:05;;;;;;;38.97;21.15;;;;;;;;;;5054232;28;20135;-71
2021/11/14 14:38:31;;;;;;;51.08;24.35;;;;;;;;;;5054173;28;20036;-72
2021/11/14 14:41:09;;;;;;;36.88;20.25;;;;;;;;;;5036218;28;20479;-71
2021/11/14 14:43:34;;;;;;;27.42;16.48;;;;;;;;;;5054101;28;20037;-71
2021/11/14 14:46:04;;;;;;;28.25;17.08;;;;;;;;;;5054091;28;20032;-72
2021/11/14 14:48:34;;;;;;;24.50;15.75;;;;;;;;;;5054035;28;20114;-71